Flood From: 22-02-2018 06:00 Until: 23-02-2018 06:00 warning for: Flood Level: Yellow info button

Although rather usual in this region, locally or potentially dangerous phenomena are expected. (such as local winds, summer thunderstorms, rising streams or high waves) Be aware and pay attention to the latest weather updates, especially if you carry out activities exposed to weather or close to a stream or shoreline. 


Meteo18 Weather Cam more information Meteo18 Weather Cam


Thunder radar more information blitzortung!


Rain radar more information rain snow radar


Visit our other weather sites:

Template documentation
and downloads

And another site



Weather Underground History page Text

Daily Summary for July 18, 2017 Units:  English    Metric   Both
« Previous Day
Next Day »
Daily Weekly Monthly Yearly Custom
  High: Low: Average:
Temperature: TemperatureC °F 18.9 °F 26.3 °F
Dew Point: DewpointC °F 13.6 °F 15.6 °F
Humidity: Humidity % 32 % 54 %
Wind Speed: WindSpeedKMH mph 0.0 mph 3.3 mph
Wind Gust: WindSpeedGustKMH mph - -
Wind:- - ESE
Pressure: PressurehPa in 1010.4 in -
Precipitation: 0.3 in    
Historical Graphs
 
 
Tabular Data for July 18, 2017
Time Temperature Dew Point Pressure Wind Wind Speed Wind Gust Humidity Rainfall Rate (Hourly)
TemperatureC °F DewpointC °F PressurehPa in Calm     Humidity % HourlyPrecipMM in
00:02 22.3 °F 15.6 °F 1017.8 in NNW 1.6 mph 3.2 mph 66 % 0.0 in
00:12 22.2 °F 15.8 °F 1017.8 in Calm   3.2 mph 67 % 0.0 in
00:17 22.1 °F 15.7 °F 1017.8 in Calm   3.2 mph 67 % 0.0 in
00:22 22.0 °F 15.6 °F 1017.8 in NNW 3.2 mph 3.2 mph 67 % 0.0 in
00:32 22.0 °F 15.6 °F 1017.5 in Calm   3.2 mph 67 % 0.0 in
00:42 21.9 °F 15.7 °F 1017.5 in NNW 1.6 mph 3.2 mph 68 % 0.0 in
00:47 21.9 °F 15.7 °F 1017.5 in Calm   3.2 mph 68 % 0.0 in
00:52 21.8 °F 15.4 °F 1017.5 in Calm   3.2 mph 67 % 0.0 in
00:57 21.8 °F 15.6 °F 1017.5 in Calm   3.2 mph 68 % 0.0 in
01:02 21.8 °F 15.6 °F 1017.5 in North 1.6 mph 3.2 mph 68 % 0.0 in
01:07 21.7 °F 15.5 °F 1017.5 in North 1.6 mph 3.2 mph 68 % 0.0 in
01:12 21.6 °F 15.4 °F 1017.5 in Calm   3.2 mph 68 % 0.0 in
01:17 21.6 °F 15.4 °F 1017.5 in NNW 3.2 mph 3.2 mph 68 % 0.0 in
01:22 21.7 °F 15.3 °F 1017.5 in NNW 1.6 mph 3.2 mph 67 % 0.0 in
01:27 21.6 °F 15.2 °F 1017.5 in Calm   3.2 mph 67 % 0.0 in
01:32 21.5 °F 15.3 °F 1017.5 in Calm   3.2 mph 68 % 0.0 in
01:37 21.5 °F 15.3 °F 1017.2 in Calm   3.2 mph 68 % 0.0 in
01:42 21.4 °F 15.2 °F 1017.2 in Calm     68 % 0.0 in
01:47 21.3 °F 15.2 °F 1017.2 in Calm     68 % 0.0 in
01:52 21.3 °F 15.2 °F 1017.2 in Calm     68 % 0.0 in
01:57 21.2 °F 15.3 °F 1017.2 in Calm     69 % 0.0 in
02:02 20.8 °F 15.1 °F 1017.2 in Calm     70 % 0.0 in
02:07 20.5 °F 15.3 °F 1017.2 in Calm     72 % 0.0 in
02:12 20.4 °F 15.0 °F 1017.2 in Calm     71 % 0.0 in
02:17 20.4 °F 15.0 °F 1017.2 in Calm     71 % 0.0 in
02:22 20.4 °F 15.2 °F 1017.2 in Calm     72 % 0.0 in
02:32 20.4 °F 15.0 °F 1017.2 in Calm   3.2 mph 71 % 0.0 in
02:42 20.2 °F 15.0 °F 1017.2 in NW 1.6 mph 4.8 mph 72 % 0.0 in
02:47 20.2 °F 15.0 °F 1017.2 in Calm   4.8 mph 72 % 0.0 in
02:52 20.3 °F 15.1 °F 1016.8 in Calm   3.2 mph 72 % 0.0 in
02:57 20.2 °F 15.0 °F 1016.8 in North 1.6 mph 3.2 mph 72 % 0.0 in
03:02 20.1 °F 15.1 °F 1016.8 in NNW 3.2 mph 4.8 mph 73 % 0.0 in
03:07 20.0 °F 15.0 °F 1016.8 in NNE 3.2 mph 4.8 mph 73 % 0.0 in
03:12 19.9 °F 14.9 °F 1016.8 in NNW 1.6 mph 4.8 mph 73 % 0.0 in
03:17 19.9 °F 15.1 °F 1016.8 in North 3.2 mph 4.8 mph 74 % 0.0 in
03:22 19.9 °F 14.9 °F 1016.8 in NNE 1.6 mph 4.8 mph 73 % 0.0 in
03:27 19.8 °F 15.0 °F 1016.8 in Calm   4.8 mph 74 % 0.0 in
03:32 19.6 °F 14.8 °F 1016.8 in Calm   4.8 mph 74 % 0.0 in
03:37 19.5 °F 14.9 °F 1016.5 in Calm   3.2 mph 75 % 0.0 in
03:42 19.5 °F 14.9 °F 1016.5 in Calm   3.2 mph 75 % 0.0 in
03:47 19.6 °F 14.8 °F 1016.5 in Calm   3.2 mph 74 % 0.0 in
03:52 19.7 °F 14.9 °F 1016.5 in NE 6.4 mph 6.4 mph 74 % 0.0 in
03:57 20.1 °F 15.1 °F 1016.5 in NE 6.4 mph 8.0 mph 73 % 0.0 in
04:02 20.2 °F 15.0 °F 1016.5 in NE 3.2 mph 11.3 mph 72 % 0.0 in
04:12 20.1 °F 15.1 °F 1016.5 in NNE 1.6 mph 11.3 mph 73 % 0.0 in
04:17 19.9 °F 14.9 °F 1016.5 in Calm   9.7 mph 73 % 0.0 in
04:22 19.7 °F 14.9 °F 1016.1 in North 1.6 mph 9.7 mph 74 % 0.0 in
04:32 19.5 °F 14.9 °F 1016.1 in NNW 1.6 mph 4.8 mph 75 % 0.0 in
04:37 19.5 °F 14.9 °F 1016.1 in Calm   4.8 mph 75 % 0.0 in
04:42 19.5 °F 14.7 °F 1016.1 in NNW 1.6 mph 4.8 mph 74 % 0.0 in
04:47 19.4 °F 14.9 °F 1016.1 in Calm   4.8 mph 75 % 0.0 in
04:52 19.3 °F 14.8 °F 1016.1 in Calm   4.8 mph 75 % 0.0 in
04:57 19.2 °F 14.7 °F 1016.1 in Calm   3.2 mph 75 % 0.0 in
05:02 19.2 °F 14.7 °F 1016.1 in Calm   1.6 mph 75 % 0.0 in
05:12 19.2 °F 14.7 °F 1016.1 in Calm   3.2 mph 75 % 0.0 in
05:17 19.1 °F 14.8 °F 1016.1 in Calm   3.2 mph 76 % 0.0 in
05:22 19.0 °F 14.7 °F 1015.8 in Calm   1.6 mph 76 % 0.0 in
05:27 19.0 °F 14.7 °F 1015.8 in Calm   1.6 mph 76 % 0.0 in
05:37 18.9 °F 14.8 °F 1015.8 in Calm   1.6 mph 77 % 0.0 in
05:42 19.0 °F 14.7 °F 1015.8 in North 1.6 mph 1.6 mph 76 % 0.0 in
05:47 19.0 °F 14.7 °F 1015.8 in Calm   4.8 mph 76 % 0.0 in
05:52 19.0 °F 14.7 °F 1015.8 in Calm   4.8 mph 76 % 0.0 in
06:02 19.1 °F 14.6 °F 1015.8 in ENE 1.6 mph 1.6 mph 75 % 0.0 in
06:12 19.4 °F 14.9 °F 1015.8 in NE 4.8 mph 6.4 mph 75 % 0.0 in
06:17 19.5 °F 14.7 °F 1015.8 in NE 6.4 mph 6.4 mph 74 % 0.0 in
06:22 19.5 °F 14.7 °F 1015.8 in NE 1.6 mph 6.4 mph 74 % 0.0 in
06:32 19.4 °F 14.9 °F 1016.1 in Calm   6.4 mph 75 % 0.0 in
06:42 19.1 °F 14.8 °F 1015.8 in North 1.6 mph 8.0 mph 76 % 0.0 in
06:47 19.1 °F 14.8 °F 1015.8 in Calm   4.8 mph 76 % 0.0 in
06:52 19.1 °F 14.8 °F 1015.8 in Calm   4.8 mph 76 % 0.0 in
06:57 19.2 °F 14.9 °F 1015.8 in Calm   3.2 mph 76 % 0.0 in
07:02 19.6 °F 15.0 °F 1015.8 in Calm   3.2 mph 75 % 0.0 in
07:12 20.1 °F 15.3 °F 1015.8 in Calm   1.6 mph 74 % 0.0 in
07:17 20.3 °F 15.5 °F 1015.8 in Calm   1.6 mph 74 % 0.0 in
07:22 20.6 °F 15.6 °F 1015.8 in Calm     73 % 0.0 in
07:32 21.2 °F 15.9 °F 1015.8 in NNE 1.6 mph   72 % 0.0 in
07:42 21.4 °F 15.7 °F 1015.5 in NE 4.8 mph 4.8 mph 70 % 0.0 in
07:52 21.5 °F 15.8 °F 1015.5 in NNE 3.2 mph 4.8 mph 70 % 0.0 in
07:57 21.7 °F 15.8 °F 1015.8 in NE 3.2 mph 8.0 mph 69 % 0.0 in
08:02 21.9 °F 16.0 °F 1015.8 in NE 1.6 mph 8.0 mph 69 % 0.0 in
08:12 22.4 °F 16.4 °F 1015.8 in ENE 3.2 mph 8.0 mph 69 % 0.0 in
08:17 22.5 °F 16.1 °F 1015.8 in ENE 4.8 mph 4.8 mph 67 % 0.0 in
08:22 22.7 °F 16.0 °F 1015.8 in East 4.8 mph 9.7 mph 66 % 0.0 in
08:27 22.9 °F 16.2 °F 1015.8 in ENE 3.2 mph 9.7 mph 66 % 0.0 in
08:32 23.1 °F 16.4 °F 1015.8 in ENE 4.8 mph 9.7 mph 66 % 0.0 in
08:42 23.6 °F 16.1 °F 1015.5 in ENE 6.4 mph 6.4 mph 63 % 0.0 in
08:47 23.9 °F 15.7 °F 1015.5 in NE 6.4 mph 9.7 mph 60 % 0.0 in
08:52 24.2 °F 15.1 °F 1015.5 in ESE 3.2 mph 9.7 mph 57 % 0.0 in
08:57 24.5 °F 15.1 °F 1015.5 in Calm   11.3 mph 56 % 0.0 in
09:02 24.7 °F 15.1 °F 1015.5 in SE 8.0 mph 11.3 mph 55 % 0.0 in
09:12 24.7 °F 15.6 °F 1015.5 in ESE 4.8 mph 9.7 mph 57 % 0.0 in
09:17 25.0 °F 15.9 °F 1015.5 in East 1.6 mph 11.3 mph 57 % 0.0 in
09:22 25.1 °F 15.7 °F 1015.5 in East 1.6 mph 11.3 mph 56 % 0.0 in
09:27 25.2 °F 15.8 °F 1015.5 in SE 4.8 mph 11.3 mph 56 % 0.0 in
09:32 25.5 °F 16.1 °F 1015.5 in NE 6.4 mph 11.3 mph 56 % 0.0 in
09:42 25.5 °F 15.8 °F 1015.5 in Calm   11.3 mph 55 % 0.0 in
09:52 25.3 °F 15.6 °F 1015.1 in East 9.7 mph 9.7 mph 55 % 0.0 in
09:57 25.8 °F 15.8 °F 1015.1 in ESE 1.6 mph 14.5 mph 54 % 0.0 in
10:02 26.2 °F 15.3 °F 1015.1 in ENE 6.4 mph 14.5 mph 51 % 0.0 in
10:12 26.5 °F 14.9 °F 1015.1 in ENE 6.4 mph 12.9 mph 49 % 0.0 in
10:17 26.6 °F 14.7 °F 1015.1 in East 1.6 mph 11.3 mph 48 % 0.0 in
10:27 27.3 °F 14.7 °F 1015.1 in NE 3.2 mph 11.3 mph 46 % 0.0 in
10:32 27.6 °F 14.6 °F 1014.8 in ENE 11.3 mph 11.3 mph 45 % 0.0 in
10:42 27.9 °F 14.5 °F 1014.8 in Calm   12.9 mph 44 % 0.0 in
10:52 28.4 °F 14.2 °F 1014.8 in East 6.4 mph 12.9 mph 42 % 0.0 in
11:02 28.3 °F 14.2 °F 1014.8 in ESE 4.8 mph 12.9 mph 42 % 0.0 in
11:12 28.7 °F 14.5 °F 1014.8 in ENE 1.6 mph 12.9 mph 42 % 0.0 in
11:17 28.8 °F 13.9 °F 1014.8 in ESE 4.8 mph 14.5 mph 40 % 0.0 in
11:22 28.8 °F 14.2 °F 1014.8 in ESE 6.4 mph 17.7 mph 41 % 0.0 in
11:32 29.1 °F 14.1 °F 1014.4 in SW 4.8 mph 17.7 mph 40 % 0.0 in
11:37 29.4 °F 14.0 °F 1014.4 in ENE 4.8 mph 16.1 mph 39 % 0.0 in
11:47 29.8 °F 14.0 °F 1014.4 in ENE 1.6 mph 16.1 mph 38 % 0.0 in
11:52 30.1 °F 14.6 °F 1014.4 in East 1.6 mph 16.1 mph 39 % 0.0 in
11:57 30.2 °F 14.3 °F 1014.4 in East 9.7 mph 14.5 mph 38 % 0.0 in
12:02 30.4 °F 14.1 °F 1014.4 in East 3.2 mph 14.5 mph 37 % 0.0 in
12:12 30.8 °F 14.4 °F 1014.4 in ENE 3.2 mph 16.1 mph 37 % 0.0 in
12:17 30.8 °F 13.6 °F 1014.4 in SE 6.4 mph 16.1 mph 35 % 0.0 in
12:22 30.9 °F 13.7 °F 1014.4 in SE 6.4 mph 16.1 mph 35 % 0.0 in
12:32 30.9 °F 13.7 °F 1014.4 in SSW 3.2 mph 14.5 mph 35 % 0.0 in
12:37 31.0 °F 13.7 °F 1014.1 in SSE 8.0 mph 16.1 mph 35 % 0.0 in
12:42 30.9 °F 14.1 °F 1014.1 in SSE 8.0 mph 16.1 mph 36 % 0.0 in
12:47 31.1 °F 14.7 °F 1014.1 in ESE 4.8 mph 16.1 mph 37 % 0.0 in
12:52 31.4 °F 14.5 °F 1013.8 in SSW 6.4 mph 16.1 mph 36 % 0.0 in
12:57 31.2 °F 14.8 °F 1014.1 in ENE 8.0 mph 16.1 mph 37 % 0.0 in
13:02 31.3 °F 14.4 °F 1014.1 in ESE 1.6 mph 16.1 mph 36 % 0.0 in
13:12 31.7 °F 14.8 °F 1013.8 in SSW 3.2 mph 17.7 mph 36 % 0.0 in
13:22 31.4 °F 13.6 °F 1013.8 in SSE 12.9 mph 19.3 mph 34 % 0.0 in
13:32 31.2 °F 14.4 °F 1013.8 in SW 6.4 mph 19.3 mph 36 % 0.0 in
13:37 31.1 °F 14.3 °F 1013.8 in East 3.2 mph 17.7 mph 36 % 0.0 in
13:42 31.3 °F 14.4 °F 1013.8 in SSE 4.8 mph 17.7 mph 36 % 0.0 in
13:52 31.8 °F 14.9 °F 1013.8 in WSW 6.4 mph 19.3 mph 36 % 0.0 in
13:57 32.2 °F 14.3 °F 1013.4 in SE 4.8 mph 19.3 mph 34 % 0.0 in
14:02 32.2 °F 15.2 °F 1013.4 in ESE 8.0 mph 16.1 mph 36 % 0.0 in
14:07 32.2 °F 14.8 °F 1013.4 in SW 4.8 mph 17.7 mph 35 % 0.0 in
14:12 32.3 °F 14.9 °F 1013.4 in SE 8.0 mph 17.7 mph 35 % 0.0 in
14:22 32.2 °F 14.8 °F 1013.4 in NNE 3.2 mph 17.7 mph 35 % 0.0 in
14:27 32.6 °F 15.1 °F 1013.4 in ESE 4.8 mph 17.7 mph 35 % 0.0 in
14:32 32.6 °F 15.1 °F 1013.4 in East 4.8 mph 17.7 mph 35 % 0.0 in
14:37 32.8 °F 14.4 °F 1013.1 in ESE 3.2 mph 16.1 mph 33 % 0.0 in
14:42 32.7 °F 14.8 °F 1013.4 in ENE 4.8 mph 17.7 mph 34 % 0.0 in
14:47 32.8 °F 14.4 °F 1013.1 in SW 4.8 mph 17.7 mph 33 % 0.0 in
14:52 32.9 °F 14.5 °F 1013.1 in East 1.6 mph 17.7 mph 33 % 0.0 in
14:57 33.1 °F 15.1 °F 1013.1 in SSE 3.2 mph 24.1 mph 34 % 0.0 in
15:02 33.3 °F 15.8 °F 1012.8 in ESE 14.5 mph 24.1 mph 35 % 0.0 in
15:07 33.1 °F 15.1 °F 1012.8 in ESE 3.2 mph 16.1 mph 34 % 0.0 in
15:12 32.9 °F 14.5 °F 1012.8 in SSW 14.5 mph 19.3 mph 33 % 0.0 in
15:17 32.9 °F 14.5 °F 1012.8 in ESE 9.7 mph 19.3 mph 33 % 0.0 in
15:22 33.1 °F 15.6 °F 1012.8 in ESE 6.4 mph 19.3 mph 35 % 0.0 in
15:32 32.4 °F 14.5 °F 1012.8 in West 3.2 mph 19.3 mph 34 % 0.0 in
15:37 32.5 °F 15.1 °F 1012.8 in SE 3.2 mph 19.3 mph 35 % 0.0 in
15:42 33.0 °F 15.5 °F 1012.8 in SE 4.8 mph 16.1 mph 35 % 0.0 in
15:47 33.2 °F 15.2 °F 1012.4 in ENE 6.4 mph 16.1 mph 34 % 0.0 in
15:52 33.3 °F 15.8 °F 1012.4 in SE 12.9 mph 16.1 mph 35 % 0.0 in
15:57 33.4 °F 15.4 °F 1012.4 in East 4.8 mph 16.1 mph 34 % 0.0 in
16:02 33.6 °F 15.6 °F 1012.4 in ESE 4.8 mph 16.1 mph 34 % 0.0 in
16:07 33.8 °F 15.7 °F 1012.4 in ESE 8.0 mph 14.5 mph 34 % 0.0 in
16:12 33.7 °F 15.2 °F 1012.4 in East 6.4 mph 14.5 mph 33 % 0.0 in
16:17 33.7 °F 15.2 °F 1012.1 in SE 6.4 mph 16.1 mph 33 % 0.0 in
16:22 33.6 °F 15.1 °F 1012.1 in East 8.0 mph 17.7 mph 33 % 0.0 in
16:27 33.6 °F 14.6 °F 1012.1 in SE 6.4 mph 17.7 mph 32 % 0.0 in
16:32 33.6 °F 15.1 °F 1012.1 in ESE 16.1 mph 17.7 mph 33 % 0.0 in
16:37 33.5 °F 15.0 °F 1012.1 in ESE 16.1 mph 17.7 mph 33 % 0.0 in
16:42 33.8 °F 16.2 °F 1011.7 in East 8.0 mph 25.7 mph 35 % 0.0 in
16:47 33.6 °F 15.6 °F 1012.1 in SE 6.4 mph 25.7 mph 34 % 0.0 in
16:57 32.4 °F 14.5 °F 1012.1 in East 6.4 mph 16.1 mph 34 % 0.0 in
17:02 32.1 °F 15.1 °F 1011.7 in Calm   16.1 mph 36 % 0.0 in
17:07 31.8 °F 15.3 °F 1012.1 in SE 1.6 mph 12.9 mph 37 % 0.0 in
17:12 31.7 °F 15.6 °F 1011.7 in ESE 3.2 mph 12.9 mph 38 % 0.0 in
17:17 31.5 °F 16.3 °F 1011.7 in South 3.2 mph 12.9 mph 40 % 0.0 in
17:22 31.2 °F 17.1 °F 1011.7 in SE 4.8 mph 12.9 mph 43 % 0.0 in
17:27 30.3 °F 19.3 °F 1011.7 in SE 3.2 mph 12.9 mph 52 % 0.0 in
17:32 29.3 °F 19.0 °F 1011.7 in East 6.4 mph 11.3 mph 54 % 0.3 in
17:37 29.2 °F 19.8 °F 1011.7 in East 4.8 mph 11.3 mph 57 % 0.3 in
17:42 29.6 °F 19.3 °F 1011.7 in ENE 8.0 mph 11.3 mph 54 % 0.3 in
17:47 29.9 °F 19.3 °F 1011.7 in East 8.0 mph 11.3 mph 53 % 0.3 in
17:52 30.3 °F 19.3 °F 1011.7 in ENE 8.0 mph 14.5 mph 52 % 0.3 in
17:57 30.7 °F 18.8 °F 1011.4 in ENE 9.7 mph 17.7 mph 49 % 0.3 in
18:02 31.0 °F 18.7 °F 1011.4 in ENE 4.8 mph 17.7 mph 48 % 0.3 in
18:12 31.3 °F 19.0 °F 1011.4 in ENE 8.0 mph 16.1 mph 48 % 0.3 in
18:17 31.4 °F 19.1 °F 1011.4 in ENE 9.7 mph 16.1 mph 48 % 0.3 in
18:22 31.2 °F 19.2 °F 1011.4 in ENE 8.0 mph 16.1 mph 49 % 0.3 in
18:27 31.1 °F 19.1 °F 1011.1 in NE 3.2 mph 16.1 mph 49 % 0.3 in
18:32 31.1 °F 18.5 °F 1011.1 in East 6.4 mph 12.9 mph 47 % 0.0 in
18:42 31.2 °F 18.2 °F 1011.1 in East 4.8 mph 12.9 mph 46 % 0.0 in
18:52 31.2 °F 17.5 °F 1011.1 in East 4.8 mph 11.3 mph 44 % 0.0 in
18:57 31.4 °F 17.3 °F 1011.1 in ESE 1.6 mph 11.3 mph 43 % 0.0 in
19:02 31.6 °F 17.1 °F 1011.1 in ENE 4.8 mph 9.7 mph 42 % 0.0 in
19:07 31.6 °F 17.5 °F 1011.1 in ENE 4.8 mph 9.7 mph 43 % 0.0 in
19:12 31.4 °F 17.3 °F 1011.1 in ENE 8.0 mph 9.7 mph 43 % 0.0 in
19:17 31.3 °F 16.9 °F 1011.1 in ENE 4.8 mph 9.7 mph 42 % 0.0 in
19:22 31.3 °F 16.5 °F 1011.1 in ENE 8.0 mph 11.3 mph 41 % 0.0 in
19:27 31.3 °F 16.9 °F 1011.1 in ENE 4.8 mph 12.9 mph 42 % 0.0 in
19:32 31.2 °F 17.1 °F 1011.1 in East 9.7 mph 12.9 mph 43 % 0.0 in
19:37 31.2 °F 16.8 °F 1011.1 in East 3.2 mph 12.9 mph 42 % 0.0 in
19:42 31.1 °F 17.0 °F 1011.1 in ENE 6.4 mph 12.9 mph 43 % 0.0 in
19:47 30.9 °F 16.9 °F 1011.1 in East 1.6 mph 12.9 mph 43 % 0.0 in
19:52 30.9 °F 16.9 °F 1011.1 in ENE 6.4 mph 9.7 mph 43 % 0.0 in
19:57 30.8 °F 16.8 °F 1011.1 in East 8.0 mph 9.7 mph 43 % 0.0 in
20:02 30.8 °F 16.8 °F 1010.7 in East 6.4 mph 11.3 mph 43 % 0.0 in
20:12 30.6 °F 17.0 °F 1010.7 in East 4.8 mph 11.3 mph 44 % 0.0 in
20:17 30.4 °F 16.8 °F 1010.7 in East 4.8 mph 11.3 mph 44 % 0.0 in
20:22 30.3 °F 17.0 °F 1010.7 in East 1.6 mph 9.7 mph 45 % 0.0 in
20:27 30.3 °F 17.0 °F 1010.7 in ENE 3.2 mph 9.7 mph 45 % 0.0 in
20:32 30.2 °F 16.9 °F 1010.4 in ENE 4.8 mph 8.0 mph 45 % 0.0 in
20:37 30.1 °F 17.2 °F 1010.4 in ENE 4.8 mph 8.0 mph 46 % 0.0 in
20:42 29.9 °F 17.4 °F 1010.4 in ENE 1.6 mph 6.4 mph 47 % 0.0 in
20:47 29.8 °F 17.3 °F 1010.4 in East 3.2 mph 8.0 mph 47 % 0.0 in
20:52 29.6 °F 17.1 °F 1010.7 in East 6.4 mph 8.0 mph 47 % 0.0 in
20:57 29.3 °F 17.2 °F 1010.4 in ENE 3.2 mph 8.0 mph 48 % 0.0 in
21:02 29.2 °F 17.1 °F 1010.4 in East 3.2 mph 8.0 mph 48 % 0.0 in
21:07 29.1 °F 17.0 °F 1010.4 in ENE 3.2 mph 8.0 mph 48 % 0.0 in
21:12 28.9 °F 16.8 °F 1010.4 in East 3.2 mph 8.0 mph 48 % 0.0 in
21:17 28.7 °F 16.9 °F 1010.4 in Calm   6.4 mph 49 % 0.0 in
21:22 28.7 °F 17.2 °F 1010.4 in West 1.6 mph 6.4 mph 50 % 0.0 in
21:32 27.5 °F 17.4 °F 1010.7 in Calm   4.8 mph 54 % 0.0 in
21:37 27.2 °F 17.1 °F 1010.7 in ENE 1.6 mph 6.4 mph 54 % 0.0 in
21:42 27.7 °F 16.9 °F 1010.7 in Calm   6.4 mph 52 % 0.0 in
21:47 27.5 °F 17.1 °F 1010.7 in Calm   3.2 mph 53 % 0.0 in
21:52 27.4 °F 16.7 °F 1010.7 in East 1.6 mph 3.2 mph 52 % 0.0 in
21:57 27.4 °F 16.7 °F 1010.7 in ENE 1.6 mph 3.2 mph 52 % 0.0 in
22:02 27.1 °F 17.0 °F 1010.7 in Calm   4.8 mph 54 % 0.0 in
22:07 26.3 °F 16.8 °F 1010.7 in Calm   4.8 mph 56 % 0.0 in
22:12 26.3 °F 16.5 °F 1010.7 in Calm   3.2 mph 55 % 0.0 in
22:17 26.3 °F 16.8 °F 1011.1 in WNW 1.6 mph   56 % 0.0 in
22:22 25.9 °F 16.7 °F 1010.7 in Calm   3.2 mph 57 % 0.0 in
22:32 25.7 °F 16.8 °F 1011.1 in Calm   3.2 mph 58 % 0.0 in
22:37 25.5 °F 16.6 °F 1010.7 in Calm   1.6 mph 58 % 0.0 in
22:42 25.4 °F 16.5 °F 1011.1 in Calm   1.6 mph 58 % 0.0 in
22:47 25.5 °F 16.4 °F 1011.1 in Calm   1.6 mph 57 % 0.0 in
22:52 25.4 °F 16.5 °F 1011.1 in Calm   1.6 mph 58 % 0.0 in
22:57 25.4 °F 16.5 °F 1010.7 in Calm   1.6 mph 58 % 0.0 in
23:02 24.9 °F 16.3 °F 1010.7 in Calm   1.6 mph 59 % 0.0 in
23:07 24.6 °F 16.6 °F 1010.7 in WNW 1.6 mph 3.2 mph 61 % 0.0 in
23:12 24.3 °F 16.6 °F 1011.1 in Calm   3.2 mph 62 % 0.0 in
23:17 24.4 °F 16.4 °F 1011.1 in Calm   3.2 mph 61 % 0.0 in
23:22 24.6 °F 16.3 °F 1011.1 in Calm   3.2 mph 60 % 0.0 in
23:27 24.7 °F 16.1 °F 1010.7 in Calm   1.6 mph 59 % 0.0 in
23:32 24.6 °F 16.3 °F 1010.7 in Calm   1.6 mph 60 % 0.0 in
23:37 24.2 °F 16.5 °F 1011.1 in Calm     62 % 0.0 in
23:42 24.0 °F 16.3 °F 1011.1 in Calm     62 % 0.0 in
23:47 23.9 °F 15.7 °F 1011.1 in Calm     60 % 0.0 in
23:52 23.9 °F 15.7 °F 1011.1 in Calm   3.2 mph 60 % 0.0 in
23:57 24.2 °F 15.7 °F 1011.1 in Calm   3.2 mph 59 % 0.0 in
Meteo18
Compliments of Weather Underground - 4 mb

Script developed by  Jim McMurry - jmcmurry@mwt.net Adapted for the template by  Wim van der Kuil - Leuven-Template.eu

You find our weather info also at:

European Weather Network

Weather Underground

Equipment we use:

Weather-station
Davis Vue

Weather-program
Meteobridge

Weather-server
Raspberry PI 2 B+

Provider
1 and 1

Davis Vue

Meteobridge

Raspberry PI 2 B+

1 and 1